Christian Reinauer — WDA6472 — position and weather

sailwx.info

Track history (hours):
 
Tides and Currents Weather Stations Pressure Air Temp Water Temp Dewpoint Dewpoint Depression Visibility Wind Speed Wind Dir Waves Ship Positions

Christian Reinauer

Owner: REINAUER TRANSPORTATION CO LLC, STATEN ISLAND, NY. More information available from US FCC via Universal Licensing System and Coast Guard Vessel Documentation Center.

Last reported at 2015-Aug-26 06:08 UTC. Time now 2015-Sep-01 16:11 UTC.
Position N 25°27' W 080°02'.

Length 170 m; draft 7 m.

Type: Tanker. MMSI: 366832740.

Date/timePositionNaut miles runAvg speedWind from/ knotsBaromVisibWave heightAir tempDewpointWater temp
2015-Aug-26 06:08N 25°27' W 080°02'610.4
2015-Aug-26 05:34N 25°33' W 080°02'10 9.6
2015-Aug-26 04:34N 25°43' W 080°02'9 8.9
2015-Aug-26 03:34N 25°52' W 080°02'9 9.1
2015-Aug-26 02:33N 26°01' W 080°04'6 5.5
2015-Aug-26 01:29N 26°06' W 080°07'0 0.0
2015-Aug-26 00:29N 26°06' W 080°07'0 0.0
2015-Aug-25 23:29N 26°06' W 080°07'0 0.0
2015-Aug-25 22:32N 26°06' W 080°07'0 0.0
2015-Aug-25 21:32N 26°06' W 080°07'0 0.0
2015-Aug-25 20:32N 26°06' W 080°07'0 0.0
2015-Aug-25 19:31N 26°06' W 080°07'0 0.0
2015-Aug-25 18:31N 26°06' W 080°07'0 0.0
2015-Aug-25 17:31N 26°06' W 080°07'0 0.0
2015-Aug-25 16:31N 26°06' W 080°07'0 0.0
2015-Aug-25 15:31N 26°06' W 080°07'0 0.0
2015-Aug-25 14:31N 26°06' W 080°07'0 0.0
2015-Aug-25 13:31N 26°06' W 080°07'0 0.0
2015-Aug-25 12:31N 26°06' W 080°07'0 0.0
2015-Aug-25 11:31N 26°06' W 080°07'0 0.0
2015-Aug-25 10:22N 26°06' W 080°07'0 0.0
2015-Aug-25 09:22N 26°06' W 080°07'0 0.0
2015-Aug-25 08:31N 26°06' W 080°07'0 0.0
2015-Aug-25 07:25N 26°06' W 080°07'0 0.3
2015-Aug-25 06:34N 26°06' W 080°07'2 2.4
2015-Aug-25 05:33N 26°07' W 080°05'0 0.2
2015-Aug-25 04:32N 26°07' W 080°05'0 0.1
2015-Aug-25 03:26N 26°07' W 080°05'0 0.0
2015-Aug-25 02:26N 26°07' W 080°05'0 0.1
2015-Aug-25 01:32N 26°07' W 080°05'0 0.0
2015-Aug-25 00:29N 26°07' W 080°05'0 0.0
2015-Aug-24 23:32N 26°07' W 080°05'0 0.1
2015-Aug-24 22:29N 26°07' W 080°05'0 0.0
2015-Aug-24 21:29N 26°07' W 080°05'0 0.0
2015-Aug-24 20:32N 26°07' W 080°05'0 0.0
2015-Aug-24 19:32N 26°07' W 080°05'0 0.1
2015-Aug-24 18:32N 26°07' W 080°05'0 0.1
2015-Aug-24 17:29N 26°07' W 080°05'0 0.0
2015-Aug-24 16:32N 26°07' W 080°05'0 0.0
2015-Aug-24 15:32N 26°07' W 080°05'0 0.0
2015-Aug-24 14:32N 26°07' W 080°05'0 0.0
2015-Aug-24 13:32N 26°07' W 080°05'0 0.0
2015-Aug-24 12:32N 26°07' W 080°05'0 0.0
2015-Aug-24 11:32N 26°07' W 080°05'0 0.1
2015-Aug-24 10:32N 26°07' W 080°05'0 0.1
2015-Aug-24 09:32N 26°07' W 080°05'0 0.1
2015-Aug-24 08:32N 26°07' W 080°05'0 0.0
2015-Aug-24 07:29N 26°07' W 080°05'0 0.0
2015-Aug-24 06:26N 26°07' W 080°05'0 0.0
2015-Aug-24 05:32N 26°07' W 080°05'0 0.0
2015-Aug-24 04:26N 26°07' W 080°05'0 0.1
2015-Aug-24 03:33N 26°07' W 080°05'6 6.4
2015-Aug-24 02:33N 26°01' W 080°03'1414.5
2015-Aug-24 01:33N 25°46' W 080°02'1413.9
2015-Aug-24 00:33N 25°32' W 080°02'  
2015-Aug-21 12:26N 29°56' W 089°59'2 2.0
2015-Aug-21 11:24N 29°57' W 090°01'0 0.0
2015-Aug-21 10:33N 29°57' W 090°01'0 0.0
2015-Aug-21 09:32N 29°57' W 090°01'0 0.0
2015-Aug-21 08:33N 29°57' W 090°01'0 0.0
2015-Aug-21 07:29N 29°57' W 090°01'3 0.7
2015-Aug-21 03:21N 29°55' W 090°04'1 0.0
2015-Aug-18 23:22N 29°55' W 090°05'  
Track history (hours):
 
Tides and Currents Weather Stations Pressure Air Temp Water Temp Dewpoint Dewpoint Depression Visibility Wind Speed Wind Dir Waves Ship Positions

Christian Reinauer

Owner: REINAUER TRANSPORTATION CO LLC, STATEN ISLAND, NY. More information available from US FCC via Universal Licensing System and Coast Guard Vessel Documentation Center.

Last reported at 2015-Aug-26 06:08 UTC. Time now 2015-Sep-01 16:11 UTC.
Position N 25°27' W 080°02'.

Length 170 m; draft 7 m.

Type: Tanker. MMSI: 366832740.

Date/timePositionNaut miles runAvg speedWind from/ knotsBaromVisibWave heightAir tempDewpointWater temp
2015-Aug-26 06:08N 25°27' W 080°02'610.4
2015-Aug-26 05:34N 25°33' W 080°02'10 9.6
2015-Aug-26 04:34N 25°43' W 080°02'9 8.9
2015-Aug-26 03:34N 25°52' W 080°02'9 9.1
2015-Aug-26 02:33N 26°01' W 080°04'6 5.5
2015-Aug-26 01:29N 26°06' W 080°07'0 0.0
2015-Aug-26 00:29N 26°06' W 080°07'0 0.0
2015-Aug-25 23:29N 26°06' W 080°07'0 0.0
2015-Aug-25 22:32N 26°06' W 080°07'0 0.0
2015-Aug-25 21:32N 26°06' W 080°07'0 0.0
2015-Aug-25 20:32N 26°06' W 080°07'0 0.0
2015-Aug-25 19:31N 26°06' W 080°07'0 0.0
2015-Aug-25 18:31N 26°06' W 080°07'0 0.0
2015-Aug-25 17:31N 26°06' W 080°07'0 0.0
2015-Aug-25 16:31N 26°06' W 080°07'0 0.0
2015-Aug-25 15:31N 26°06' W 080°07'0 0.0
2015-Aug-25 14:31N 26°06' W 080°07'0 0.0
2015-Aug-25 13:31N 26°06' W 080°07'0 0.0
2015-Aug-25 12:31N 26°06' W 080°07'0 0.0
2015-Aug-25 11:31N 26°06' W 080°07'0 0.0
2015-Aug-25 10:22N 26°06' W 080°07'0 0.0
2015-Aug-25 09:22N 26°06' W 080°07'0 0.0
2015-Aug-25 08:31N 26°06' W 080°07'0 0.0
2015-Aug-25 07:25N 26°06' W 080°07'0 0.3
2015-Aug-25 06:34N 26°06' W 080°07'2 2.4
2015-Aug-25 05:33N 26°07' W 080°05'0 0.2
2015-Aug-25 04:32N 26°07' W 080°05'0 0.1
2015-Aug-25 03:26N 26°07' W 080°05'0 0.0
2015-Aug-25 02:26N 26°07' W 080°05'0 0.1
2015-Aug-25 01:32N 26°07' W 080°05'0 0.0
2015-Aug-25 00:29N 26°07' W 080°05'0 0.0
2015-Aug-24 23:32N 26°07' W 080°05'0 0.1
2015-Aug-24 22:29N 26°07' W 080°05'0 0.0
2015-Aug-24 21:29N 26°07' W 080°05'0 0.0
2015-Aug-24 20:32N 26°07' W 080°05'0 0.0
2015-Aug-24 19:32N 26°07' W 080°05'0 0.1
2015-Aug-24 18:32N 26°07' W 080°05'0 0.1
2015-Aug-24 17:29N 26°07' W 080°05'0 0.0
2015-Aug-24 16:32N 26°07' W 080°05'0 0.0
2015-Aug-24 15:32N 26°07' W 080°05'0 0.0
2015-Aug-24 14:32N 26°07' W 080°05'0 0.0
2015-Aug-24 13:32N 26°07' W 080°05'0 0.0
2015-Aug-24 12:32N 26°07' W 080°05'0 0.0
2015-Aug-24 11:32N 26°07' W 080°05'0 0.1
2015-Aug-24 10:32N 26°07' W 080°05'0 0.1
2015-Aug-24 09:32N 26°07' W 080°05'0 0.1
2015-Aug-24 08:32N 26°07' W 080°05'0 0.0
2015-Aug-24 07:29N 26°07' W 080°05'0 0.0
2015-Aug-24 06:26N 26°07' W 080°05'0 0.0
2015-Aug-24 05:32N 26°07' W 080°05'0 0.0
2015-Aug-24 04:26N 26°07' W 080°05'0 0.1
2015-Aug-24 03:33N 26°07' W 080°05'6 6.4
2015-Aug-24 02:33N 26°01' W 080°03'1414.5
2015-Aug-24 01:33N 25°46' W 080°02'1413.9
2015-Aug-24 00:33N 25°32' W 080°02'  
2015-Aug-21 12:26N 29°56' W 089°59'2 2.0
2015-Aug-21 11:24N 29°57' W 090°01'0 0.0
2015-Aug-21 10:33N 29°57' W 090°01'0 0.0
2015-Aug-21 09:32N 29°57' W 090°01'0 0.0
2015-Aug-21 08:33N 29°57' W 090°01'0 0.0
2015-Aug-21 07:29N 29°57' W 090°01'3 0.7
2015-Aug-21 03:21N 29°55' W 090°04'1 0.0
2015-Aug-18 23:22N 29°55' W 090°05'  

Dump ship's entire track history